createdAt,value
2022-12-08T00:01:34.310Z,74.08
2022-12-08T00:04:04.571Z,73.95
2022-12-08T00:06:59.715Z,73.96
2022-12-08T00:09:42.333Z,74.09
2022-12-08T00:12:16.541Z,74.37
2022-12-08T00:14:47.284Z,74.69
2022-12-08T00:17:15.891Z,74.92
2022-12-08T00:19:44.475Z,75.12
2022-12-08T00:22:13.034Z,75.09
2022-12-08T00:24:44.102Z,75.01
2022-12-08T00:27:14.153Z,74.92
2022-12-08T00:29:44.460Z,74.85
2022-12-08T00:32:12.856Z,74.62
2022-12-08T00:34:40.898Z,74.49
2022-12-08T00:37:08.849Z,74.15
2022-12-08T00:39:36.787Z,74.09
2022-12-08T00:42:13.911Z,74.13
2022-12-08T00:44:43.826Z,74.03
2022-12-08T00:47:12.897Z,74.03
2022-12-08T00:49:41.691Z,73.83
2022-12-08T00:52:09.591Z,73.60
2022-12-08T00:54:37.537Z,73.37
2022-12-08T00:57:06.186Z,73.16
2022-12-08T00:59:34.228Z,72.97
2022-12-08T01:02:02.137Z,72.70
2022-12-08T01:04:30.415Z,72.51
2022-12-08T01:06:58.288Z,72.51
2022-12-08T01:09:26.357Z,72.76
2022-12-08T01:11:54.661Z,72.84
2022-12-08T01:14:22.565Z,72.85
2022-12-08T01:16:50.968Z,72.76
2022-12-08T01:19:19.342Z,72.57
2022-12-08T01:21:47.346Z,72.73
2022-12-08T01:24:21.708Z,73.11
2022-12-08T01:26:50.968Z,73.45
2022-12-08T01:29:18.879Z,73.82
2022-12-08T01:31:47.038Z,74.24
2022-12-08T01:34:15.077Z,74.47
2022-12-08T01:36:44.465Z,74.54
2022-12-08T01:39:17.957Z,74.52
2022-12-08T01:41:47.768Z,74.71
2022-12-08T01:44:15.728Z,74.85
2022-12-08T01:46:48.830Z,75.07
2022-12-08T01:49:43.105Z,75.09
2022-12-08T01:52:13.654Z,75.25
2022-12-08T01:54:53.092Z,75.36
2022-12-08T01:57:24.025Z,75.22
2022-12-08T01:59:58.855Z,75.04
2022-12-08T02:02:33.605Z,74.92
2022-12-08T02:05:03.506Z,74.75
2022-12-08T02:07:31.781Z,74.68
2022-12-08T02:10:01.000Z,74.88
2022-12-08T02:12:29.755Z,75.11
2022-12-08T02:15:04.852Z,75.13
2022-12-08T02:17:49.865Z,75.21
2022-12-08T02:20:27.614Z,75.09
2022-12-08T02:23:01.514Z,75.14
2022-12-08T02:25:47.892Z,75.18
2022-12-08T02:28:35.981Z,75.26
2022-12-08T02:31:51.364Z,75.39
2022-12-08T02:34:30.550Z,75.41
2022-12-08T02:37:20.580Z,75.35
2022-12-08T02:40:09.598Z,75.38
2022-12-08T02:42:44.599Z,75.36
2022-12-08T02:45:23.070Z,75.23
2022-12-08T02:47:52.223Z,75.07
2022-12-08T02:50:20.487Z,75.15
2022-12-08T02:52:49.101Z,75.14
2022-12-08T02:55:20.090Z,75.20
2022-12-08T02:58:26.095Z,75.31
2022-12-08T03:01:17.991Z,75.43
2022-12-08T03:04:13.900Z,75.37
2022-12-08T03:07:00.280Z,75.47
2022-12-08T03:09:44.781Z,75.36
2022-12-08T03:12:26.425Z,75.40
2022-12-08T03:14:58.768Z,75.27
2022-12-08T03:17:30.011Z,78.00
2022-12-08T03:20:04.191Z,81.21
2022-12-08T03:22:33.129Z,80.76
2022-12-08T03:25:01.505Z,78.77
2022-12-08T03:27:31.533Z,77.12
2022-12-08T03:30:01.130Z,76.20
2022-12-08T03:32:48.159Z,75.43
2022-12-08T03:35:24.291Z,74.95
2022-12-08T03:37:52.804Z,74.67
2022-12-08T03:40:21.016Z,74.51
2022-12-08T03:42:48.903Z,74.63
2022-12-08T03:45:16.932Z,74.62
2022-12-08T03:47:45.180Z,74.40
2022-12-08T03:50:13.255Z,74.24
2022-12-08T03:52:41.211Z,74.12
2022-12-08T03:55:09.496Z,74.07
2022-12-08T03:57:37.910Z,74.05
2022-12-08T04:00:07.624Z,74.49
2022-12-08T04:02:35.762Z,74.63
2022-12-08T04:05:03.907Z,74.69
2022-12-08T04:07:31.891Z,74.68
2022-12-08T04:10:00.179Z,74.81
2022-12-08T04:12:28.059Z,74.95
2022-12-08T04:14:55.972Z,74.99
2022-12-08T04:17:23.903Z,75.00
2022-12-08T04:19:52.573Z,74.97
2022-12-08T04:22:20.509Z,74.97
2022-12-08T04:24:48.890Z,74.93
2022-12-08T04:27:16.768Z,75.03
2022-12-08T04:29:44.611Z,75.23
2022-12-08T04:32:12.874Z,75.41
2022-12-08T04:34:40.887Z,75.31
2022-12-08T04:37:08.880Z,75.34
2022-12-08T04:39:37.082Z,75.23
2022-12-08T04:42:05.181Z,75.23
2022-12-08T04:44:33.053Z,75.37
2022-12-08T04:47:01.008Z,75.29
2022-12-08T04:49:29.145Z,75.36
2022-12-08T04:51:57.119Z,75.71
2022-12-08T04:54:25.224Z,75.87
2022-12-08T04:56:53.207Z,75.93
2022-12-08T04:59:21.219Z,75.94
2022-12-08T05:01:49.375Z,75.87
2022-12-08T05:04:17.546Z,75.59
2022-12-08T05:06:45.961Z,75.52
2022-12-08T05:09:13.988Z,75.53
2022-12-08T05:11:46.962Z,75.55
2022-12-08T05:14:18.999Z,75.43
2022-12-08T05:16:47.968Z,75.55
2022-12-08T05:19:16.696Z,75.47
2022-12-08T05:21:45.362Z,75.50
2022-12-08T05:24:13.299Z,76.17
2022-12-08T05:26:41.399Z,76.90
2022-12-08T05:29:09.849Z,78.44
2022-12-08T05:31:37.945Z,79.76
2022-12-08T05:34:05.926Z,78.44
2022-12-08T05:36:33.976Z,77.40
2022-12-08T05:39:01.920Z,76.54
2022-12-08T05:41:29.845Z,75.70
2022-12-08T05:43:57.767Z,75.23
2022-12-08T05:46:25.946Z,75.08
2022-12-08T05:48:54.067Z,74.99
2022-12-08T05:51:24.273Z,74.86
2022-12-08T05:53:53.028Z,75.00
2022-12-08T05:56:22.231Z,74.97
2022-12-08T05:58:50.392Z,74.85
2022-12-08T06:01:22.683Z,74.91
2022-12-08T06:03:51.401Z,74.95
2022-12-08T06:06:20.167Z,74.83
2022-12-08T06:08:48.147Z,74.85
2022-12-08T06:11:25.552Z,74.65
2022-12-08T06:13:54.694Z,74.57
2022-12-08T06:16:23.886Z,74.48
2022-12-08T06:18:52.387Z,75.09
2022-12-08T06:21:21.050Z,75.03
2022-12-08T06:23:51.286Z,74.65
2022-12-08T06:26:20.610Z,74.53
2022-12-08T06:28:49.485Z,74.56
2022-12-08T06:31:27.966Z,74.58
2022-12-08T06:33:56.035Z,74.70
2022-12-08T06:36:26.234Z,74.89
2022-12-08T06:38:54.275Z,74.95
2022-12-08T06:41:22.359Z,75.05
2022-12-08T06:43:50.645Z,74.97
2022-12-08T06:46:20.358Z,74.97
2022-12-08T06:48:50.477Z,74.94
2022-12-08T06:51:22.060Z,74.53
2022-12-08T06:53:50.041Z,74.36
2022-12-08T06:56:20.114Z,74.23
2022-12-08T06:58:52.505Z,73.92
2022-12-08T07:01:21.599Z,73.67
2022-12-08T07:03:49.750Z,73.58
2022-12-08T07:06:23.899Z,73.38
2022-12-08T07:08:52.195Z,73.38
2022-12-08T07:11:22.190Z,73.47
2022-12-08T07:13:51.597Z,73.23
2022-12-08T07:16:19.799Z,73.16
2022-12-08T07:18:47.836Z,73.19
2022-12-08T07:21:17.604Z,73.34
2022-12-08T07:23:46.867Z,73.38
2022-12-08T07:26:15.408Z,73.24
2022-12-08T07:28:43.773Z,73.37
2022-12-08T07:31:21.165Z,73.19
2022-12-08T07:33:50.358Z,72.95
2022-12-08T07:36:18.772Z,72.95
2022-12-08T07:38:47.270Z,72.80
2022-12-08T07:41:23.244Z,72.75
2022-12-08T07:43:53.574Z,72.69
2022-12-08T07:46:24.171Z,72.84
2022-12-08T07:48:52.614Z,72.81
2022-12-08T07:51:21.208Z,72.69
2022-12-08T07:53:54.249Z,72.55
2022-12-08T07:56:23.733Z,72.59
2022-12-08T07:58:51.997Z,72.37
2022-12-08T08:01:26.548Z,72.20
2022-12-08T08:03:57.190Z,72.22
2022-12-08T08:06:25.246Z,72.31
2022-12-08T08:08:53.431Z,72.22
2022-12-08T08:11:21.918Z,72.12
2022-12-08T08:13:51.041Z,72.30
2022-12-08T08:16:19.873Z,72.20
2022-12-08T08:18:50.035Z,71.99
2022-12-08T08:24:08.916Z,72.02
2022-12-08T08:26:37.419Z,71.81
2022-12-08T08:29:05.529Z,71.83
2022-12-08T08:31:33.552Z,72.01
2022-12-08T08:34:06.141Z,71.91
2022-12-08T08:36:34.628Z,71.69
2022-12-08T08:39:03.402Z,71.50
2022-12-08T08:41:31.462Z,71.51
2022-12-08T08:43:59.500Z,71.23
2022-12-08T08:46:27.763Z,70.97
2022-12-08T08:48:56.390Z,70.57
2022-12-08T08:51:24.601Z,70.09
2022-12-08T08:53:52.456Z,70.05
2022-12-08T08:56:20.422Z,69.37
2022-12-08T08:58:49.655Z,69.21
2022-12-08T09:01:21.083Z,69.14
2022-12-08T09:03:49.731Z,68.90
2022-12-08T09:06:18.307Z,68.64
2022-12-08T09:08:46.936Z,68.39
2022-12-08T09:11:15.442Z,68.31
2022-12-08T09:13:43.452Z,68.17
2022-12-08T09:16:11.972Z,67.71
2022-12-08T09:18:40.056Z,67.33
2022-12-08T09:21:13.272Z,67.05
2022-12-08T09:23:41.216Z,67.31
2022-12-08T09:26:10.170Z,66.64
2022-12-08T09:28:38.425Z,66.10
2022-12-08T09:31:06.449Z,66.14
2022-12-08T09:33:34.579Z,66.16
2022-12-08T09:36:04.401Z,66.38
2022-12-08T09:38:32.840Z,66.45
2022-12-08T09:41:04.408Z,66.25
2022-12-08T09:43:51.864Z,65.93
2022-12-08T09:46:20.941Z,65.96
2022-12-08T09:48:56.977Z,66.04
2022-12-08T09:51:27.166Z,65.84
2022-12-08T09:54:03.289Z,64.81
2022-12-08T09:56:35.780Z,64.52
2022-12-08T09:59:30.741Z,64.72
2022-12-08T10:02:00.496Z,64.19
2022-12-08T10:04:35.183Z,64.10
2022-12-08T10:07:25.117Z,64.06
2022-12-08T10:10:06.099Z,63.88
2022-12-08T10:12:38.154Z,64.16
2022-12-08T10:15:48.771Z,64.27
2022-12-08T10:18:25.025Z,64.83
2022-12-08T10:20:54.545Z,64.66
2022-12-08T10:23:31.856Z,64.23
2022-12-08T10:26:07.639Z,64.18
2022-12-08T10:28:40.046Z,63.79
2022-12-08T10:31:17.992Z,63.94
2022-12-08T10:33:48.322Z,64.26
2022-12-08T10:36:16.213Z,64.52
2022-12-08T10:38:44.295Z,64.69
2022-12-08T10:41:12.476Z,65.03
2022-12-08T10:43:48.105Z,64.87
2022-12-08T10:46:20.698Z,65.00
2022-12-08T10:48:52.733Z,64.17
2022-12-08T10:51:42.092Z,63.93
2022-12-08T10:54:33.372Z,63.68
2022-12-08T10:57:01.644Z,63.58
2022-12-08T10:59:32.868Z,63.04
2022-12-08T11:02:02.548Z,63.13
2022-12-08T11:04:36.661Z,63.33
2022-12-08T11:07:06.539Z,63.62
2022-12-08T11:09:48.686Z,63.29
2022-12-08T11:12:18.618Z,63.06
2022-12-08T11:14:56.238Z,62.89
2022-12-08T11:17:27.344Z,62.99
2022-12-08T11:20:06.498Z,62.86
2022-12-08T11:22:38.077Z,62.42
2022-12-08T11:25:10.890Z,62.07
2022-12-08T11:27:43.582Z,65.62
2022-12-08T11:30:28.020Z,63.01
2022-12-08T11:33:01.473Z,61.26
2022-12-08T11:35:37.526Z,61.02
2022-12-08T11:38:22.280Z,61.06
2022-12-08T11:40:54.424Z,60.18
2022-12-08T11:43:25.362Z,59.65
2022-12-08T11:45:58.137Z,58.64
2022-12-08T11:48:41.191Z,58.74
2022-12-08T11:51:36.716Z,58.51
2022-12-08T11:54:06.342Z,58.70
2022-12-08T11:56:39.000Z,58.74
2022-12-08T11:59:13.479Z,58.28
2022-12-08T12:01:42.854Z,58.34
2022-12-08T12:04:22.223Z,57.21
2022-12-08T12:06:56.157Z,56.53
2022-12-08T12:10:03.788Z,56.33
2022-12-08T12:12:37.871Z,55.56
2022-12-08T12:15:27.897Z,54.81
2022-12-08T12:17:59.183Z,53.79
2022-12-08T12:20:53.176Z,54.27
2022-12-08T12:23:39.117Z,53.53
2022-12-08T12:26:10.235Z,52.34
2022-12-08T12:29:08.604Z,51.88
2022-12-08T12:31:42.025Z,51.31
2022-12-08T12:34:27.238Z,50.64
2022-12-08T12:37:15.612Z,51.22
2022-12-08T12:39:52.914Z,50.59
2022-12-08T12:42:39.575Z,50.47
2022-12-08T12:45:16.174Z,50.78
2022-12-08T12:47:55.895Z,50.92
2022-12-08T12:50:33.508Z,51.06
2022-12-08T12:53:10.680Z,51.38
2022-12-08T12:56:02.472Z,51.33
2022-12-08T12:58:30.434Z,51.30
2022-12-08T13:01:13.966Z,51.57
2022-12-08T13:04:07.312Z,52.06
2022-12-08T13:06:40.838Z,53.60
2022-12-08T13:09:22.290Z,52.96
2022-12-08T13:11:54.153Z,52.59
2022-12-08T13:14:29.823Z,52.75
2022-12-08T13:17:00.152Z,52.93
2022-12-08T13:19:32.147Z,53.42
2022-12-08T13:22:00.748Z,53.35
2022-12-08T13:24:32.579Z,53.72
2022-12-08T13:27:03.794Z,53.40
2022-12-08T13:29:33.429Z,53.27
2022-12-08T13:32:03.087Z,53.20
2022-12-08T13:34:42.163Z,53.50
2022-12-08T13:37:16.147Z,53.50
2022-12-08T13:39:51.653Z,53.73
2022-12-08T13:42:32.632Z,53.72
2022-12-08T13:48:44.631Z,54.07
2022-12-08T13:53:15.845Z,54.64
2022-12-08T13:57:36.871Z,55.04
2022-12-08T14:00:15.968Z,55.20
2022-12-08T14:02:48.419Z,55.39
2022-12-08T14:05:21.872Z,55.53
2022-12-08T14:07:55.425Z,55.62
2022-12-08T14:10:27.595Z,55.68
2022-12-08T14:13:01.848Z,55.64
2022-12-08T14:15:37.609Z,55.98
2022-12-08T14:18:21.640Z,56.09
2022-12-08T14:21:20.303Z,55.62
2022-12-08T14:23:49.249Z,55.18
2022-12-08T14:26:17.960Z,54.92
2022-12-08T14:28:46.012Z,55.22
2022-12-08T14:31:15.022Z,54.92
2022-12-08T14:33:43.324Z,54.48
2022-12-08T14:36:15.822Z,54.37
2022-12-08T14:38:45.241Z,53.67
2022-12-08T14:41:13.226Z,53.56
2022-12-08T14:43:43.005Z,53.42
2022-12-08T14:46:22.335Z,52.93
2022-12-08T14:48:50.562Z,53.26
2022-12-08T14:51:26.520Z,53.34
2022-12-08T14:54:09.672Z,52.60
2022-12-08T14:56:41.886Z,67.09
2022-12-08T14:59:17.732Z,60.48
2022-12-08T15:01:49.452Z,56.29
2022-12-08T15:04:23.195Z,55.21
2022-12-08T15:07:22.811Z,54.56
2022-12-08T15:10:09.640Z,53.58
2022-12-08T15:12:37.807Z,53.46
2022-12-08T15:15:08.558Z,54.02
2022-12-08T15:17:44.530Z,54.63
2022-12-08T15:20:40.918Z,54.22
2022-12-08T15:23:42.629Z,53.78
2022-12-08T15:26:21.088Z,53.71
2022-12-08T15:28:49.245Z,53.68
2022-12-08T15:31:18.034Z,53.89
2022-12-08T15:33:45.936Z,53.71
2022-12-08T15:36:14.162Z,53.72
2022-12-08T15:38:43.260Z,53.91
2022-12-08T15:41:14.837Z,53.71
2022-12-08T15:43:43.622Z,53.83
2022-12-08T15:46:12.002Z,53.77
2022-12-08T15:48:40.219Z,53.85
2022-12-08T15:51:08.287Z,54.03
2022-12-08T15:53:36.134Z,54.36
2022-12-08T15:58:56.855Z,54.67
2022-12-08T16:01:26.619Z,54.53
2022-12-08T16:04:47.749Z,54.46
2022-12-08T16:09:38.947Z,54.71
2022-12-08T16:13:26.656Z,54.63
2022-12-08T16:15:51.235Z,54.78
2022-12-08T16:18:23.928Z,55.03
2022-12-08T16:21:16.870Z,55.47
2022-12-08T16:23:43.719Z,55.66
2022-12-08T16:29:07.499Z,55.59
2022-12-08T16:31:35.611Z,55.62
2022-12-08T16:34:03.704Z,55.57
2022-12-08T16:36:31.749Z,55.93
2022-12-08T16:38:59.654Z,56.14
2022-12-08T16:41:45.827Z,56.27
2022-12-08T16:44:13.916Z,56.98
2022-12-08T16:46:42.120Z,57.98
2022-12-08T16:49:10.075Z,58.25
2022-12-08T16:51:38.605Z,58.71
2022-12-08T16:54:06.492Z,58.59
2022-12-08T16:56:34.384Z,58.35
2022-12-08T16:59:02.732Z,58.26
2022-12-08T17:01:31.573Z,58.43
2022-12-08T17:04:31.007Z,58.51
2022-12-08T17:06:47.997Z,58.79
2022-12-08T17:09:15.887Z,58.77
2022-12-08T17:11:44.161Z,58.87
2022-12-08T17:14:13.540Z,59.08
2022-12-08T17:16:42.353Z,59.33
2022-12-08T17:19:13.408Z,59.63
2022-12-08T17:21:43.484Z,65.27
2022-12-08T17:24:14.619Z,67.89
2022-12-08T17:26:43.875Z,64.49
2022-12-08T17:29:11.969Z,63.05
2022-12-08T17:31:39.900Z,62.59
2022-12-08T17:34:11.100Z,62.18
2022-12-08T17:36:39.360Z,62.00
2022-12-08T17:39:12.147Z,62.02
2022-12-08T17:41:42.942Z,62.15
2022-12-08T17:44:13.509Z,62.35
2022-12-08T17:46:45.244Z,62.61
2022-12-08T17:49:20.452Z,63.24
2022-12-08T17:51:51.068Z,63.45
2022-12-08T17:54:20.079Z,64.38
2022-12-08T17:56:48.368Z,64.90
2022-12-08T17:59:16.618Z,65.36
2022-12-08T18:01:44.832Z,65.84
2022-12-08T18:04:13.207Z,65.78
2022-12-08T18:06:41.530Z,66.07
2022-12-08T18:09:09.738Z,66.41
2022-12-08T18:11:37.877Z,66.42
2022-12-08T18:14:11.063Z,66.51
2022-12-08T18:16:41.583Z,66.77
2022-12-08T18:19:09.773Z,67.22
2022-12-08T18:21:38.251Z,67.56
2022-12-08T18:24:07.225Z,68.05
2022-12-08T18:26:35.483Z,68.57
2022-12-08T18:29:03.785Z,69.40
2022-12-08T18:31:31.761Z,69.56
2022-12-08T18:33:59.791Z,70.58
2022-12-08T18:36:27.796Z,73.27
2022-12-08T18:38:56.019Z,72.18
2022-12-08T18:41:26.088Z,71.75
2022-12-08T18:43:55.742Z,71.43
2022-12-08T18:46:25.314Z,71.09
2022-12-08T18:48:53.375Z,71.11
2022-12-08T18:51:24.182Z,71.11
2022-12-08T18:53:52.840Z,71.69
2022-12-08T18:56:26.806Z,72.34
2022-12-08T18:59:01.307Z,71.36
2022-12-08T19:01:33.016Z,71.14
2022-12-08T19:06:52.242Z,71.40
2022-12-08T19:09:20.653Z,74.29
2022-12-08T19:11:49.121Z,74.19
2022-12-08T19:14:19.223Z,73.34
2022-12-08T19:16:51.336Z,72.90
2022-12-08T19:19:19.282Z,72.63
2022-12-08T19:21:47.184Z,72.43
2022-12-08T19:24:15.705Z,72.41
2022-12-08T19:26:43.721Z,72.65
2022-12-08T19:29:12.280Z,72.73
2022-12-08T19:31:41.681Z,72.93
2022-12-08T19:34:11.886Z,72.82
2022-12-08T19:36:42.950Z,72.74
2022-12-08T19:39:38.823Z,72.92
2022-12-08T19:42:36.072Z,72.97
2022-12-08T19:45:12.037Z,73.15
2022-12-08T19:47:41.306Z,73.34
2022-12-08T19:50:31.069Z,73.53
2022-12-08T19:52:59.623Z,73.71
2022-12-08T19:55:28.183Z,73.85
2022-12-08T19:57:57.109Z,74.13
2022-12-08T20:00:25.812Z,74.52
2022-12-08T20:02:54.073Z,74.58
2022-12-08T20:05:22.832Z,74.65
2022-12-08T20:07:50.976Z,74.83
2022-12-08T20:10:23.265Z,74.82
2022-12-08T20:12:51.812Z,74.84
2022-12-08T20:15:19.927Z,74.87
2022-12-08T20:17:47.899Z,75.08
2022-12-08T20:20:16.171Z,75.41
2022-12-08T20:22:45.261Z,75.46
2022-12-08T20:25:13.520Z,75.66
2022-12-08T20:27:41.753Z,75.86
2022-12-08T20:30:16.530Z,76.00
2022-12-08T20:32:45.896Z,76.23
2022-12-08T20:35:15.512Z,76.47
2022-12-08T20:37:43.644Z,76.67
2022-12-08T20:40:12.172Z,76.67
2022-12-08T20:42:40.074Z,76.75
2022-12-08T20:45:09.913Z,76.75
2022-12-08T20:47:38.282Z,76.66
2022-12-08T20:50:07.472Z,76.54
2022-12-08T20:52:38.126Z,76.65
2022-12-08T20:55:07.240Z,76.74
2022-12-08T20:57:35.779Z,76.73
2022-12-08T21:00:05.285Z,76.69
2022-12-08T21:02:33.825Z,76.82
2022-12-08T21:05:02.391Z,76.89
2022-12-08T21:07:30.618Z,77.04
2022-12-08T21:09:59.116Z,77.04
2022-12-08T21:12:27.209Z,77.14
2022-12-08T21:14:55.193Z,77.32
2022-12-08T21:17:23.758Z,77.43
2022-12-08T21:19:51.732Z,77.46
2022-12-08T21:22:21.096Z,77.54
2022-12-08T21:24:49.337Z,77.81
2022-12-08T21:27:17.343Z,78.03
2022-12-08T21:29:45.543Z,78.14
2022-12-08T21:32:14.458Z,78.43
2022-12-08T21:34:44.284Z,78.56
2022-12-08T21:37:12.415Z,78.74
2022-12-08T21:39:40.367Z,78.70
2022-12-08T21:42:33.926Z,78.82
2022-12-08T21:45:02.473Z,79.04
2022-12-08T21:47:30.730Z,78.93
2022-12-08T21:49:58.798Z,78.92
2022-12-08T21:52:27.260Z,79.09
2022-12-08T21:54:55.535Z,79.00
2022-12-08T21:57:24.554Z,79.10
2022-12-08T21:59:52.760Z,79.00
2022-12-08T22:02:22.676Z,79.15
2022-12-08T22:04:52.979Z,79.06
2022-12-08T22:07:22.058Z,79.08
2022-12-08T22:09:49.968Z,79.17
2022-12-08T22:12:18.221Z,79.28
2022-12-08T22:14:46.303Z,79.13
2022-12-08T22:17:14.390Z,78.95
2022-12-08T22:19:43.640Z,79.09
2022-12-08T22:22:11.727Z,79.09
2022-12-08T22:24:39.799Z,78.99
2022-12-08T22:27:08.183Z,78.77
2022-12-08T22:29:36.127Z,78.81
2022-12-08T22:32:04.234Z,78.88
2022-12-08T22:34:32.514Z,78.75
2022-12-08T22:37:00.826Z,78.65
2022-12-08T22:39:28.789Z,78.67
2022-12-08T22:41:56.637Z,78.79
2022-12-08T22:44:24.597Z,78.57
2022-12-08T22:46:52.583Z,78.55
2022-12-08T22:49:20.497Z,78.52
2022-12-08T22:51:48.440Z,78.47
2022-12-08T22:54:16.651Z,78.58
2022-12-08T22:56:44.982Z,78.98
2022-12-08T22:59:12.887Z,80.41
2022-12-08T23:01:41.202Z,81.33
2022-12-08T23:04:17.241Z,82.08
2022-12-08T23:06:46.126Z,82.43
2022-12-08T23:09:14.538Z,82.91
2022-12-08T23:11:44.213Z,83.31
2022-12-08T23:14:12.505Z,83.72
2022-12-08T23:16:40.589Z,83.79
2022-12-08T23:19:08.647Z,84.00
2022-12-08T23:21:36.962Z,83.92
2022-12-08T23:24:05.291Z,84.03
2022-12-08T23:26:35.512Z,84.20
2022-12-08T23:29:04.563Z,84.37
2022-12-08T23:31:32.880Z,84.64
2022-12-08T23:34:02.575Z,84.66
2022-12-08T23:36:31.652Z,84.74
2022-12-08T23:38:59.750Z,84.70
2022-12-08T23:41:28.098Z,84.84
2022-12-08T23:43:56.429Z,85.03
2022-12-08T23:46:24.914Z,84.97
2022-12-08T23:48:52.861Z,85.02
2022-12-08T23:51:21.426Z,84.94
2022-12-08T23:53:49.352Z,85.07
2022-12-08T23:56:18.497Z,84.99
2022-12-08T23:58:46.816Z,84.96
